Time;durP1;ratioP1;P1;durP2;ratioP2;P2;SDS_P1;SDS_P2;PMS_P1;PMS_P2;Temp;Humidity;BMP_temperature;BMP_pressure;BME280_temperature;BME280_humidity;BME280_pressure;Samples;Min_cycle;Max_cycle;Signal;HPM_P1;HPM_P2
2023/08/20 00:00:19;;;;;;;8.10;3.88;;;16.20;99.90;;;;;;5030782;28;20033;-61
2023/08/20 00:02:49;;;;;;;12.52;4.28;;;16.00;99.90;;;;;;5021987;28;20025;-61
2023/08/20 00:05:15;;;;;;;11.23;4.28;;;16.20;99.90;;;;;;5022843;28;20042;-61
2023/08/20 00:07:41;;;;;;;11.10;4.10;;;16.00;99.90;;;;;;5027730;28;20033;-61
2023/08/20 00:10:07;;;;;;;9.15;3.65;;;16.30;99.90;;;;;;5024674;28;20116;-61
2023/08/20 00:12:33;;;;;;;10.13;4.00;;;15.70;99.90;;;;;;5018540;28;20037;-61
2023/08/20 00:15:07;;;;;;;8.45;3.53;;;16.60;99.90;;;;;;5018684;28;20443;-60
2023/08/20 00:17:35;;;;;;;11.73;3.83;;;16.10;99.90;;;;;;5023954;28;20064;-61
2023/08/20 00:20:04;;;;;;;10.00;3.95;;;16.20;99.90;;;;;;5025021;28;20372;-61
2023/08/20 00:22:30;;;;;;;8.82;4.32;;;16.50;99.90;;;;;;5023490;28;20104;-61
2023/08/20 00:24:56;;;;;;;7.70;3.78;;;15.50;99.90;;;;;;5020892;28;20547;-61
2023/08/20 00:27:22;;;;;;;8.43;3.30;;;16.00;99.90;;;;;;5016492;28;20180;-61
2023/08/20 00:29:48;;;;;;;8.13;3.70;;;15.30;99.90;;;;;;5027043;28;20045;-61
2023/08/20 00:32:15;;;;;;;7.18;3.70;;;15.30;99.90;;;;;;5025146;28;20116;-61
2023/08/20 00:34:40;;;;;;;9.35;3.40;;;15.90;99.90;;;;;;5021025;28;20053;-61
2023/08/20 00:37:06;;;;;;;7.50;4.35;;;16.10;99.90;;;;;;5012655;28;20053;-61
2023/08/20 00:39:32;;;;;;;9.57;3.83;;;16.30;99.90;;;;;;5024424;28;20057;-60
2023/08/20 00:41:57;;;;;;;10.27;3.33;;;15.70;99.90;;;;;;5022310;28;20030;-61
2023/08/20 00:44:23;;;;;;;8.70;4.07;;;15.80;99.90;;;;;;5022086;28;20495;-60
2023/08/20 00:46:51;;;;;;;8.70;4.43;;;15.60;99.90;;;;;;5025561;28;20057;-61
2023/08/20 00:49:17;;;;;;;7.88;3.75;;;15.80;99.90;;;;;;5020102;28;20025;-61
2023/08/20 00:51:43;;;;;;;11.77;4.55;;;15.50;99.90;;;;;;5022950;28;20566;-61
2023/08/20 00:54:10;;;;;;;13.77;4.30;;;15.60;99.90;;;;;;5020927;28;20126;-61
2023/08/20 00:56:36;;;;;;;11.10;4.45;;;15.10;99.90;;;;;;5013281;28;20038;-61
2023/08/20 00:59:04;;;;;;;7.45;3.88;;;15.10;99.90;;;;;;5024077;28;20034;-61
2023/08/20 01:01:29;;;;;;;8.93;4.57;;;15.00;99.90;;;;;;5020986;28;20033;-61
2023/08/20 01:03:55;;;;;;;13.43;4.43;;;15.40;99.90;;;;;;5023194;28;20091;-61
2023/08/20 01:06:35;;;;;;;11.02;5.07;;;14.80;99.90;;;;;;5026963;28;20103;-61
2023/08/20 01:09:18;;;;;;;12.57;4.90;;;15.80;99.90;;;;;;5024967;28;20056;-60
2023/08/20 01:11:54;;;;;;;11.70;4.95;;;15.70;99.90;;;;;;5016781;28;20026;-61
2023/08/20 01:14:21;;;;;;;12.80;5.10;;;15.50;99.90;;;;;;5019606;28;20050;-61
2023/08/20 01:16:49;;;;;;;12.60;4.45;;;15.20;99.90;;;;;;5029679;28;20041;-61
2023/08/20 01:19:18;;;;;;;9.52;5.38;;;15.30;99.90;;;;;;5025659;28;20033;-61
2023/08/20 01:21:51;;;;;;;10.10;3.85;;;15.50;99.90;;;;;;5020181;28;20041;-60
2023/08/20 01:24:45;;;;;;;8.32;4.00;;;15.80;99.90;;;;;;5018322;28;20048;-61
2023/08/20 01:27:35;;;;;;;9.65;4.28;;;15.80;99.90;;;;;;5009411;28;20137;-61
2023/08/20 01:30:03;;;;;;;10.98;3.90;;;16.00;99.90;;;;;;5023372;28;20033;-61
2023/08/20 01:32:29;;;;;;;11.10;4.53;;;15.40;99.90;;;;;;5027354;28;20064;-60
2023/08/20 01:34:56;;;;;;;10.68;3.80;;;16.00;99.90;;;;;;5017298;28;20116;-61
2023/08/20 01:37:22;;;;;;;11.63;4.90;;;15.50;99.90;;;;;;5023045;28;20045;-60
2023/08/20 01:39:48;;;;;;;11.77;5.00;;;15.10;99.90;;;;;;5016205;28;20092;-61
2023/08/20 01:42:14;;;;;;;9.32;6.05;;;15.50;99.90;;;;;;5024576;28;20038;-61
2023/08/20 01:44:39;;;;;;;11.40;5.13;;;15.10;99.90;;;;;;5020799;28;20037;-61
2023/08/20 01:47:05;;;;;;;12.65;5.20;;;15.50;99.90;;;;;;5023546;28;20049;-60
2023/08/20 01:49:31;;;;;;;13.15;5.13;;;15.80;99.90;;;;;;5019200;28;20065;-60
2023/08/20 01:51:57;;;;;;;12.30;5.25;;;16.30;99.90;;;;;;5024185;28;20114;-61
2023/08/20 01:54:23;;;;;;;14.50;5.70;;;14.90;99.90;;;;;;5028516;28;20045;-60
2023/08/20 01:56:48;;;;;;;10.90;5.18;;;15.60;99.90;;;;;;5023689;28;20496;-61
2023/08/20 01:59:14;;;;;;;11.98;4.78;;;15.00;99.90;;;;;;5020756;28;20055;-60
2023/08/20 02:01:39;;;;;;;11.50;4.90;;;15.50;99.90;;;;;;5018802;28;20569;-61
2023/08/20 02:04:05;;;;;;;10.02;5.07;;;16.40;99.90;;;;;;5022008;28;20530;-60
2023/08/20 02:06:31;;;;;;;11.55;4.65;;;16.00;99.90;;;;;;5021397;28;20041;-61
2023/08/20 02:08:56;;;;;;;13.10;5.47;;;15.20;99.90;;;;;;5025851;28;20064;-61
2023/08/20 02:11:23;;;;;;;13.05;5.10;;;15.90;99.90;;;;;;5021346;28;20065;-60
2023/08/20 02:13:48;;;;;;;14.93;5.40;;;16.00;99.90;;;;;;5004056;28;20052;-61
2023/08/20 02:16:16;;;;;;;10.23;4.90;;;15.10;99.90;;;;;;5019177;28;20042;-60
2023/08/20 02:18:41;;;;;;;10.80;5.45;;;16.10;99.90;;;;;;5018991;28;20068;-60
2023/08/20 02:21:07;;;;;;;14.90;5.75;;;14.90;99.90;;;;;;5024713;28;20090;-61
2023/08/20 02:23:33;;;;;;;11.38;5.07;;;16.00;99.90;;;;;;5019890;28;20037;-60
2023/08/20 02:25:59;;;;;;;13.15;6.00;;;15.70;99.90;;;;;;5023973;28;20037;-61
2023/08/20 02:28:24;;;;;;;10.70;5.05;;;15.90;99.90;;;;;;5020948;28;20503;-61
2023/08/20 02:30:50;;;;;;;15.00;5.20;;;15.70;1.00;;;;;;5012650;28;20042;-61
2023/08/20 02:33:16;;;;;;;12.30;5.85;;;15.50;1.00;;;;;;5024980;28;20128;-60
2023/08/20 02:35:41;;;;;;;12.45;5.53;;;15.50;1.00;;;;;;5021556;28;20077;-61
2023/08/20 02:38:09;;;;;;;11.73;5.15;;;15.40;1.00;;;;;;5013721;28;20034;-60
2023/08/20 02:40:42;;;;;;;15.75;6.90;;;15.40;1.00;;;;;;5024711;28;20042;-61
2023/08/20 02:43:08;;;;;;;13.73;5.50;;;15.60;1.00;;;;;;5022381;28;20037;-61
2023/08/20 02:45:40;;;;;;;9.10;5.05;;;15.10;1.00;;;;;;5018830;28;20125;-61
2023/08/20 02:48:06;;;;;;;9.45;5.28;;;15.60;1.00;;;;;;5026618;28;20121;-60
2023/08/20 02:50:32;;;;;;;8.65;5.07;;;15.90;1.00;;;;;;5025085;28;20345;-61
2023/08/20 02:52:58;;;;;;;12.35;4.95;;;15.70;1.00;;;;;;5026756;28;20519;-61
2023/08/20 02:55:23;;;;;;;11.00;4.70;;;15.20;1.00;;;;;;5026049;28;20042;-60
2023/08/20 02:57:49;;;;;;;8.80;4.82;;;15.70;1.00;;;;;;5022049;28;20127;-60
2023/08/20 03:00:15;;;;;;;10.25;4.65;;;14.80;1.00;;;;;;5015851;28;20029;-60
2023/08/20 03:02:41;;;;;;;9.02;4.53;;;15.50;1.00;;;;;;5022173;28;20048;-60
2023/08/20 03:05:09;;;;;;;11.00;4.97;;;15.60;1.00;;;;;;5016769;28;20048;-61
2023/08/20 03:07:35;;;;;;;10.60;4.50;;;14.60;1.00;;;;;;5018980;28;20056;-61
2023/08/20 03:10:01;;;;;;;8.68;4.63;;;15.10;1.00;;;;;;5016584;28;20116;-61
2023/08/20 03:12:26;;;;;;;7.88;4.75;;;15.00;1.00;;;;;;5019036;28;20144;-61
2023/08/20 03:14:52;;;;;;;11.73;6.20;;;15.00;1.00;;;;;;5023643;28;20060;-60
2023/08/20 03:17:18;;;;;;;10.85;5.07;;;14.50;1.00;;;;;;5025647;28;20091;-60
2023/08/20 03:19:58;;;;;;;9.23;4.75;;;14.70;1.00;;;;;;5022934;28;20132;-60
2023/08/20 03:22:25;;;;;;;9.70;5.28;;;14.70;1.00;;;;;;5022964;28;20065;-60
2023/08/20 03:24:51;;;;;;;12.35;5.72;;;15.60;1.00;;;;;;5022440;28;20046;-60
2023/08/20 03:27:17;;;;;;;11.23;6.15;;;14.60;1.00;;;;;;5026814;28;20561;-60
2023/08/20 03:29:43;;;;;;;13.13;6.00;;;15.30;1.00;;;;;;5025127;28;20077;-60
2023/08/20 03:32:09;;;;;;;10.13;5.65;;;14.70;1.00;;;;;;5021853;28;20079;-60
2023/08/20 03:34:35;;;;;;;16.85;6.05;;;15.10;1.00;;;;;;5021313;28;20037;-60
2023/08/20 03:37:01;;;;;;;11.85;5.88;;;15.20;1.00;;;;;;5018565;28;20214;-61
2023/08/20 03:39:27;;;;;;;10.82;6.47;;;14.90;1.00;;;;;;5015333;28;20061;-61
2023/08/20 03:41:53;;;;;;;15.57;7.25;;;15.60;1.00;;;;;;5021288;28;20073;-61
2023/08/20 03:44:19;;;;;;;11.60;6.43;;;15.50;1.00;;;;;;5026792;28;20057;-60
2023/08/20 03:46:45;;;;;;;11.00;6.13;;;15.30;1.00;;;;;;5018069;28;20099;-60
2023/08/20 03:49:10;;;;;;;14.90;6.82;;;15.80;1.00;;;;;;5023565;28;20446;-61
2023/08/20 03:51:36;;;;;;;12.27;6.88;;;15.70;1.00;;;;;;5017764;28;20061;-60
2023/08/20 03:54:02;;;;;;;12.52;7.28;;;15.70;1.00;;;;;;5023409;28;20045;-61
2023/08/20 03:56:28;;;;;;;14.13;7.10;;;15.90;1.00;;;;;;5016403;28;20030;-60
2023/08/20 03:58:54;;;;;;;12.30;7.07;;;15.60;1.00;;;;;;5026346;28;20107;-60
2023/08/20 04:01:20;;;;;;;17.17;7.60;;;15.30;1.00;;;;;;5022288;28;20091;-60
2023/08/20 04:03:47;;;;;;;14.15;6.47;;;15.50;1.00;;;;;;5028650;28;20042;-61
2023/08/20 04:06:13;;;;;;;14.45;7.22;;;15.90;1.00;;;;;;5026218;28;20049;-60
2023/08/20 04:08:39;;;;;;;11.85;5.88;;;15.60;1.00;;;;;;5025640;28;20091;-61
2023/08/20 04:11:05;;;;;;;15.75;6.72;;;14.90;1.00;;;;;;5026772;28;20495;-60
2023/08/20 04:13:31;;;;;;;15.82;7.20;;;16.10;1.00;;;;;;5024993;28;20033;-60
2023/08/20 04:15:57;;;;;;;14.13;7.57;;;15.80;1.00;;;;;;5027221;28;20164;-61
2023/08/20 04:18:22;;;;;;;11.82;6.30;;;15.20;1.00;;;;;;5024547;28;20049;-60
2023/08/20 04:20:51;;;;;;;12.27;6.50;;;15.60;1.00;;;;;;5026933;28;20065;-60
2023/08/20 04:23:17;;;;;;;13.32;6.88;;;15.00;1.00;;;;;;5023001;28;20052;-60
2023/08/20 04:25:44;;;;;;;13.00;7.30;;;15.80;1.00;;;;;;5022616;28;20033;-61
2023/08/20 04:28:10;;;;;;;14.85;6.95;;;16.10;1.00;;;;;;5028602;28;20034;-60
2023/08/20 04:30:36;;;;;;;13.30;6.93;;;15.30;1.00;;;;;;5026150;28;20042;-60
2023/08/20 04:33:01;;;;;;;12.85;6.82;;;15.50;1.00;;;;;;5010785;28;20051;-60
2023/08/20 04:35:27;;;;;;;12.98;6.90;;;15.70;1.00;;;;;;5022787;28;20117;-61
2023/08/20 04:37:53;;;;;;;11.65;6.38;;;16.40;1.00;;;;;;5029355;28;20464;-61
2023/08/20 04:40:19;;;;;;;14.20;7.57;;;16.50;1.00;;;;;;5030532;28;20371;-60
2023/08/20 04:42:44;;;;;;;12.38;6.85;;;15.90;1.00;;;;;;5021997;28;20029;-60
2023/08/20 04:45:13;;;;;;;13.95;7.10;;;15.30;7.40;;;;;;5019586;28;20038;-61
2023/08/20 04:47:38;;;;;;;12.55;6.97;;;15.60;11.40;;;;;;5021199;28;20045;-61
2023/08/20 04:50:06;;;;;;;14.70;6.43;;;16.40;16.90;;;;;;5024384;28;20150;-60
2023/08/20 04:52:33;;;;;;;12.20;6.25;;;16.50;20.30;;;;;;5025502;28;20041;-60
2023/08/20 04:54:59;;;;;;;12.70;6.18;;;16.30;22.00;;;;;;5016357;28;20141;-61
2023/08/20 04:57:25;;;;;;;16.70;6.38;;;15.70;29.80;;;;;;5022048;28;20117;-59
2023/08/20 04:59:50;;;;;;;17.13;6.25;;;15.80;39.10;;;;;;5016841;28;20067;-61
2023/08/20 05:02:16;;;;;;;15.98;5.93;;;16.10;39.60;;;;;;5024293;28;20069;-61
2023/08/20 05:04:42;;;;;;;13.07;6.07;;;16.30;53.90;;;;;;5014439;28;20121;-60
2023/08/20 05:07:09;;;;;;;13.00;5.65;;;;;;;;;;5020020;28;20439;-61
2023/08/20 05:09:34;;;;;;;16.80;6.25;;;16.30;42.90;;;;;;5023799;28;20091;-60
2023/08/20 05:12:00;;;;;;;13.20;5.68;;;15.90;53.50;;;;;;5022717;28;20041;-61
2023/08/20 05:14:26;;;;;;;12.00;5.93;;;16.30;60.90;;;;;;5022123;28;20042;-60
2023/08/20 05:16:51;;;;;;;12.75;5.72;;;16.50;63.50;;;;;;5025051;28;20037;-60
2023/08/20 05:19:17;;;;;;;16.40;6.28;;;16.80;73.10;;;;;;5017093;28;20439;-60
2023/08/20 05:21:43;;;;;;;13.10;6.82;;;16.40;66.60;;;;;;5024882;28;20468;-60
2023/08/20 05:24:09;;;;;;;17.60;6.45;;;16.10;78.40;;;;;;5024590;28;20375;-60
2023/08/20 05:26:35;;;;;;;13.13;6.20;;;16.80;70.50;;;;;;5021383;28;20037;-61
2023/08/20 05:29:00;;;;;;;16.77;6.90;;;16.40;74.90;;;;;;5026750;28;20095;-60
2023/08/20 05:31:26;;;;;;;14.75;5.68;;;15.90;79.50;;;;;;5026435;28;21134;-61
2023/08/20 05:33:52;;;;;;;18.05;6.38;;;16.40;90.30;;;;;;5025352;28;20044;-59
2023/08/20 05:36:17;;;;;;;15.25;6.25;;;16.30;92.20;;;;;;5028008;28;20103;-60
2023/08/20 05:38:43;;;;;;;12.57;5.50;;;16.90;89.90;;;;;;5027649;28;20410;-60
2023/08/20 05:41:09;;;;;;;12.05;5.55;;;17.10;90.70;;;;;;5019080;28;20033;-59
2023/08/20 05:43:36;;;;;;;16.00;6.25;;;16.70;91.70;;;;;;5020823;28;20043;-60
2023/08/20 05:46:02;;;;;;;12.63;5.97;;;16.50;90.80;;;;;;5028468;28;20056;-60
2023/08/20 05:48:28;;;;;;;16.98;6.90;;;16.70;96.70;;;;;;5019394;28;20171;-61
2023/08/20 05:50:54;;;;;;;14.57;6.10;;;16.70;95.60;;;;;;5028389;28;20045;-60
2023/08/20 05:53:21;;;;;;;16.52;5.90;;;16.60;93.50;;;;;;5015688;28;20049;-60
2023/08/20 05:55:47;;;;;;;14.75;5.88;;;16.50;95.80;;;;;;5026934;28;20179;-60
2023/08/20 05:58:12;;;;;;;16.60;7.32;;;16.70;98.40;;;;;;5022500;28;20502;-60
2023/08/20 06:00:38;;;;;;;14.00;5.88;;;16.20;98.50;;;;;;5025565;28;20469;-60
2023/08/20 06:03:04;;;;;;;14.93;5.50;;;16.90;98.70;;;;;;5021302;28;20061;-60
2023/08/20 06:05:30;;;;;;;15.80;6.10;;;16.80;99.90;;;;;;5017773;28;20042;-60
2023/08/20 06:07:55;;;;;;;14.65;5.35;;;17.90;99.90;;;;;;5020499;28;20101;-61
2023/08/20 06:10:21;;;;;;;16.85;5.63;;;17.30;99.90;;;;;;5017094;28;20042;-61
2023/08/20 06:12:46;;;;;;;16.58;5.90;;;17.20;99.90;;;;;;5024787;28;20041;-61
2023/08/20 06:15:12;;;;;;;14.65;5.25;;;17.00;99.90;;;;;;5025470;28;20513;-60
2023/08/20 06:17:38;;;;;;;13.65;5.05;;;17.70;99.90;;;;;;5023647;28;20052;-61
2023/08/20 06:20:08;;;;;;;18.20;6.47;;;17.80;99.90;;;;;;5025672;28;20036;-61
2023/08/20 06:22:34;;;;;;;18.92;6.82;;;17.80;99.90;;;;;;5028572;28;20095;-61
2023/08/20 06:25:00;;;;;;;15.20;6.13;;;17.20;99.90;;;;;;5024085;28;20037;-61
2023/08/20 06:27:26;;;;;;;15.05;5.57;;;17.40;99.90;;;;;;5021661;28;20048;-61
2023/08/20 06:29:51;;;;;;;14.95;6.10;;;18.00;99.90;;;;;;5025860;28;20517;-61
2023/08/20 06:32:17;;;;;;;16.00;5.50;;;17.30;99.90;;;;;;5023359;28;20045;-61
2023/08/20 06:34:43;;;;;;;11.43;4.72;;;17.20;99.90;;;;;;5027553;28;20404;-61
2023/08/20 06:37:08;;;;;;;16.00;6.35;;;18.20;99.90;;;;;;5018258;28;20376;-61
2023/08/20 06:39:34;;;;;;;13.40;5.50;;;;;;;;;;5021726;28;20033;-61
2023/08/20 06:42:00;;;;;;;17.27;5.53;;;18.50;99.90;;;;;;5001208;28;20044;-61
2023/08/20 06:44:26;;;;;;;12.73;5.10;;;17.70;99.90;;;;;;5011559;28;20043;-61
2023/08/20 06:46:52;;;;;;;13.32;5.47;;;18.60;99.90;;;;;;5015185;28;20439;-61
2023/08/20 06:49:17;;;;;;;14.55;5.80;;;17.60;99.90;;;;;;5014999;28;20120;-61
2023/08/20 06:51:43;;;;;;;14.57;5.60;;;17.70;99.90;;;;;;5016336;28;20415;-61
2023/08/20 06:54:09;;;;;;;21.63;6.85;;;17.70;99.90;;;;;;5015402;28;20045;-61
2023/08/20 06:56:35;;;;;;;15.05;5.93;;;18.40;99.90;;;;;;5022559;28;20044;-61
2023/08/20 06:59:03;;;;;;;16.50;6.55;;;18.00;98.80;;;;;;5026927;28;20406;-61
2023/08/20 07:01:28;;;;;;;21.35;5.72;;;18.80;95.10;;;;;;5016364;28;20660;-61
2023/08/20 07:03:54;;;;;;;16.80;6.03;;;18.70;89.20;;;;;;5013690;28;20046;-61
2023/08/20 07:06:20;;;;;;;14.93;5.88;;;18.70;88.00;;;;;;5027304;28;20045;-61
2023/08/20 07:08:46;;;;;;;19.95;7.50;;;19.20;79.40;;;;;;5013828;28;20400;-61
2023/08/20 07:11:11;;;;;;;19.50;6.05;;;18.90;88.50;;;;;;5018415;28;20057;-60
2023/08/20 07:13:37;;;;;;;14.90;5.50;;;18.70;87.80;;;;;;5013628;28;20442;-60
2023/08/20 07:16:03;;;;;;;18.20;5.95;;;19.00;87.00;;;;;;5016354;28;20045;-61
2023/08/20 07:18:29;;;;;;;17.05;6.43;;;19.00;94.30;;;;;;5027780;28;20456;-61
2023/08/20 07:20:55;;;;;;;20.27;6.30;;;18.90;71.50;;;;;;5018824;28;20092;-61
2023/08/20 07:23:22;;;;;;;17.58;5.50;;;18.80;50.90;;;;;;5023432;28;20052;-61
2023/08/20 07:25:48;;;;;;;13.80;5.82;;;19.00;16.80;;;;;;5019343;28;20042;-61
2023/08/20 07:28:14;;;;;;;19.50;6.32;;;19.40;1.00;;;;;;5028034;28;20432;-61
2023/08/20 07:30:40;;;;;;;16.13;5.47;;;18.80;1.00;;;;;;5026259;28;20419;-61
2023/08/20 07:33:07;;;;;;;16.50;6.05;;;19.10;1.00;;;;;;5022871;28;20048;-61
2023/08/20 07:35:33;;;;;;;14.15;5.13;;;19.40;1.00;;;;;;5030485;28;20052;-61
2023/08/20 07:37:58;;;;;;;16.80;5.47;;;19.40;1.00;;;;;;5029873;28;20084;-61
2023/08/20 07:40:24;;;;;;;16.38;5.78;;;19.50;1.00;;;;;;5018863;28;20073;-61
2023/08/20 07:42:51;;;;;;;20.25;6.25;;;19.40;1.00;;;;;;5025061;28;20068;-61
2023/08/20 07:45:16;;;;;;;18.85;6.47;;;19.30;1.00;;;;;;5019876;28;20117;-61
2023/08/20 07:47:42;;;;;;;15.10;6.35;;;19.50;1.00;;;;;;5016622;28;20176;-61
2023/08/20 07:50:08;;;;;;;18.70;5.88;;;20.20;1.00;;;;;;5018783;28;20124;-61
2023/08/20 07:52:34;;;;;;;24.20;6.88;;;19.80;99.90;;;;;;5022959;28;20045;-61
2023/08/20 07:55:00;;;;;;;14.43;5.82;;;19.00;99.90;;;;;;5028986;28;20050;-60
2023/08/20 07:57:25;;;;;;;15.18;6.15;;;19.70;99.90;;;;;;5027142;28;20038;-61
2023/08/20 07:59:51;;;;;;;13.40;6.10;;;19.40;99.90;;;;;;5029062;28;20033;-61
2023/08/20 08:02:17;;;;;;;18.95;6.13;;;20.40;99.90;;;;;;5018225;28;20037;-61
2023/08/20 08:04:43;;;;;;;17.45;5.88;;;19.60;99.90;;;;;;5021387;28;20045;-61
2023/08/20 08:07:11;;;;;;;14.55;6.05;;;20.00;99.90;;;;;;5025375;28;20480;-60
2023/08/20 08:09:37;;;;;;;14.10;5.55;;;20.00;99.90;;;;;;5019264;28;20053;-61
2023/08/20 08:12:03;;;;;;;16.88;4.70;;;20.20;99.90;;;;;;5025603;28;20416;-61
2023/08/20 08:14:28;;;;;;;17.45;5.53;;;20.00;99.90;;;;;;5019090;28;20221;-61
2023/08/20 08:16:54;;;;;;;13.60;4.93;;;19.80;99.90;;;;;;5015908;28;20472;-61
2023/08/20 08:19:20;;;;;;;17.40;5.07;;;20.80;99.90;;;;;;5021047;28;20519;-61
2023/08/20 08:21:46;;;;;;;14.50;4.63;;;20.20;10.30;;;;;;5024659;28;20483;-61
2023/08/20 08:24:13;;;;;;;17.35;6.10;;;20.40;33.00;;;;;;5016824;28;20068;-61
2023/08/20 08:26:39;;;;;;;11.30;3.95;;;20.20;93.30;;;;;;5019097;28;20041;-61
2023/08/20 08:29:06;;;;;;;12.55;3.85;;;20.70;25.80;;;;;;5014287;28;20093;-62
2023/08/20 08:31:33;;;;;;;12.52;3.70;;;21.40;1.00;;;;;;5024719;28;20042;-61
2023/08/20 08:33:59;;;;;;;11.38;3.65;;;20.40;99.90;;;;;;5022726;28;20025;-61
2023/08/20 08:36:24;;;;;;;16.35;4.10;;;20.70;99.90;;;;;;5025196;28;20042;-61
2023/08/20 08:38:51;;;;;;;18.20;4.22;;;20.10;99.90;;;;;;5029897;28;20045;-61
2023/08/20 08:41:19;;;;;;;12.00;4.03;;;19.90;99.90;;;;;;5025665;28;20086;-61
2023/08/20 08:43:46;;;;;;;12.27;3.58;;;20.30;99.90;;;;;;5013542;28;20567;-60
2023/08/20 08:46:15;;;;;;;12.75;3.88;;;20.50;99.90;;;;;;5022613;28;20082;-62
2023/08/20 08:48:46;;;;;;;16.70;4.07;;;20.60;99.90;;;;;;5017070;28;20118;-61
2023/08/20 08:51:12;;;;;;;10.55;3.95;;;21.10;99.90;;;;;;5024281;28;20042;-61
2023/08/20 08:53:39;;;;;;;17.42;4.00;;;20.50;99.90;;;;;;5019420;28;20033;-61
2023/08/20 08:56:07;;;;;;;10.00;2.60;;;21.20;99.90;;;;;;5026515;28;20046;-61
2023/08/20 08:58:33;;;;;;;10.20;3.20;;;21.50;99.90;;;;;;5022634;28;20048;-61
2023/08/20 09:01:00;;;;;;;13.05;3.65;;;20.20;99.90;;;;;;5022960;28;20511;-60
2023/08/20 09:03:25;;;;;;;12.27;4.05;;;20.40;99.90;;;;;;5019204;28;20041;-61
2023/08/20 09:05:57;;;;;;;12.27;3.55;;;21.60;99.90;;;;;;5023416;28;20214;-61
2023/08/20 09:08:27;;;;;;;11.23;3.05;;;21.20;1.00;;;;;;5022169;28;20046;-61
2023/08/20 09:10:55;;;;;;;10.90;3.25;;;20.50;1.00;;;;;;5021500;28;20045;-61
2023/08/20 09:13:37;;;;;;;11.30;3.20;;;20.50;1.00;;;;;;5026541;28;20136;-61
2023/08/20 09:16:08;;;;;;;11.13;3.78;;;20.70;1.00;;;;;;5030207;28;20410;-61
2023/08/20 09:18:39;;;;;;;11.55;3.10;;;21.60;1.00;;;;;;5028425;28;20520;-61
2023/08/20 09:21:07;;;;;;;13.57;3.85;;;21.80;1.00;;;;;;5024227;28;20116;-61
2023/08/20 09:23:32;;;;;;;10.98;3.08;;;20.90;1.00;;;;;;5021723;28;20251;-60
2023/08/20 09:26:02;;;;;;;12.30;3.05;;;21.30;1.00;;;;;;5022138;28;20492;-61
2023/08/20 09:28:27;;;;;;;11.93;3.42;;;20.50;1.00;;;;;;5029971;28;20492;-61
2023/08/20 09:31:02;;;;;;;10.48;3.10;;;21.50;99.90;;;;;;5026003;28;20058;-61
2023/08/20 09:33:29;;;;;;;11.35;3.00;;;20.70;99.90;;;;;;5029311;28;20111;-61
2023/08/20 09:35:54;;;;;;;12.73;2.75;;;21.00;99.90;;;;;;5023310;28;20125;-61
2023/08/20 09:38:22;;;;;;;12.32;3.20;;;20.80;99.90;;;;;;5023139;28;20113;-61
2023/08/20 09:40:50;;;;;;;7.50;2.70;;;21.10;91.50;;;;;;5023036;28;20489;-60
2023/08/20 09:43:17;;;;;;;13.88;3.15;;;21.70;91.00;;;;;;5020662;28;20038;-60
2023/08/20 09:45:43;;;;;;;13.95;3.10;;;21.90;99.90;;;;;;5021988;28;20082;-61
2023/08/20 09:48:11;;;;;;;11.48;3.05;;;21.00;99.90;;;;;;5017695;28;20087;-61
2023/08/20 09:50:39;;;;;;;10.48;3.28;;;21.80;99.90;;;;;;5019653;28;20037;-61
2023/08/20 09:53:18;;;;;;;10.90;2.90;;;21.70;90.00;;;;;;5020951;28;20514;-61
2023/08/20 09:55:44;;;;;;;9.85;2.70;;;21.70;42.80;;;;;;5024796;28;20080;-61
2023/08/20 09:58:11;;;;;;;18.75;4.40;;;22.00;20.60;;;;;;5022288;28;20044;-61
2023/08/20 10:00:37;;;;;;;10.18;3.10;;;22.60;45.60;;;;;;5023396;28;20233;-60
2023/08/20 10:03:03;;;;;;;7.90;2.53;;;22.20;11.10;;;;;;5021224;28;20045;-60
2023/08/20 10:05:29;;;;;;;10.48;3.10;;;21.90;1.00;;;;;;5020276;28;20037;-60
2023/08/20 10:07:57;;;;;;;9.80;3.00;;;22.50;99.90;;;;;;5019339;28;20120;-60
2023/08/20 10:10:24;;;;;;;10.15;2.47;;;22.40;99.90;;;;;;5021282;28;20045;-61
2023/08/20 10:12:50;;;;;;;8.70;3.30;;;22.50;99.90;;;;;;5024204;28;20037;-60
2023/08/20 10:15:16;;;;;;;15.88;3.08;;;22.30;99.90;;;;;;5018579;28;20104;-61
2023/08/20 10:17:44;;;;;;;10.65;3.30;;;22.80;99.90;;;;;;5024269;28;20524;-61
2023/08/20 10:20:10;;;;;;;9.68;2.60;;;22.50;99.90;;;;;;5020584;28;20044;-61
2023/08/20 10:22:59;;;;;;;8.30;2.63;;;21.90;99.90;;;;;;5020035;28;20052;-61
2023/08/20 10:25:26;;;;;;;8.02;2.13;;;22.90;99.90;;;;;;5021420;28;20041;-61
2023/08/20 10:27:52;;;;;;;10.40;2.70;;;22.30;99.90;;;;;;5022044;28;20041;-61
2023/08/20 10:30:22;;;;;;;6.30;2.17;;;22.40;99.90;;;;;;5017923;28;20034;-61
2023/08/20 10:32:53;;;;;;;8.90;2.78;;;22.70;99.90;;;;;;5029205;28;20521;-61
2023/08/20 10:35:24;;;;;;;11.38;2.85;;;22.60;99.90;;;;;;5016066;28;20037;-61
2023/08/20 10:38:11;;;;;;;8.10;2.47;;;22.60;99.90;;;;;;5027264;28;20057;-61
2023/08/20 10:40:56;;;;;;;8.32;2.17;;;22.50;99.90;;;;;;5016337;28;20037;-60
2023/08/20 10:43:31;;;;;;;8.45;3.00;;;22.70;99.90;;;;;;5015968;28;20092;-60
2023/08/20 10:46:09;;;;;;;9.70;2.50;;;23.30;99.90;;;;;;5020738;28;20052;-61
2023/08/20 10:48:37;;;;;;;10.93;2.92;;;22.60;99.90;;;;;;5023067;28;20080;-61
2023/08/20 10:51:33;;;;;;;7.80;2.10;;;22.90;99.90;;;;;;4998488;28;20451;-60
2023/08/20 10:54:02;;;;;;;8.77;2.42;;;22.90;99.90;;;;;;5018639;28;20518;-60
2023/08/20 10:56:55;;;;;;;7.68;2.20;;;23.10;99.90;;;;;;5020149;28;20510;-61
2023/08/20 10:59:30;;;;;;;8.18;2.40;;;23.20;91.40;;;;;;5017838;28;20533;-61
2023/08/20 11:01:58;;;;;;;9.63;2.40;;;23.30;91.90;;;;;;5026382;28;20040;-61
2023/08/20 11:04:27;;;;;;;11.38;2.97;;;23.10;81.40;;;;;;5026285;28;20103;-60
2023/08/20 11:06:55;;;;;;;11.13;2.80;;;22.90;49.40;;;;;;5022976;28;20042;-61
2023/08/20 11:09:28;;;;;;;8.27;2.67;;;23.10;34.50;;;;;;5031198;28;20049;-61
2023/08/20 11:11:55;;;;;;;11.85;2.50;;;23.20;39.40;;;;;;5026729;28;20048;-61
2023/08/20 11:14:22;;;;;;;9.20;3.05;;;22.70;25.50;;;;;;5031587;28;20053;-61
2023/08/20 11:16:48;;;;;;;9.25;1.98;;;22.90;11.50;;;;;;5023380;28;20033;-60
2023/08/20 11:19:18;;;;;;;7.47;2.15;;;23.20;1.00;;;;;;5022109;28;20045;-60
2023/08/20 11:21:44;;;;;;;7.00;2.10;;;23.10;1.00;;;;;;5028066;28;20148;-60
2023/08/20 11:24:11;;;;;;;7.85;2.45;;;23.30;1.00;;;;;;5030988;28;20512;-61
2023/08/20 11:26:39;;;;;;;7.38;2.17;;;22.70;1.00;;;;;;5023136;28;20034;-61
2023/08/20 11:29:06;;;;;;;8.27;2.40;;;22.50;1.00;;;;;;5027630;28;20037;-60
2023/08/20 11:31:32;;;;;;;7.85;2.88;;;22.90;1.00;;;;;;5024395;28;20614;-60
2023/08/20 11:33:58;;;;;;;9.45;3.10;;;22.60;1.00;;;;;;5029462;28;20037;-60
2023/08/20 11:36:23;;;;;;;10.90;2.55;;;22.80;1.00;;;;;;5029916;28;20133;-61
2023/08/20 11:38:53;;;;;;;9.48;2.30;;;22.80;1.00;;;;;;5031323;28;20124;-61
2023/08/20 11:41:22;;;;;;;9.18;2.13;;;23.00;1.00;;;;;;5027217;28;20033;-61
2023/08/20 11:43:49;;;;;;;9.82;2.60;;;23.00;1.00;;;;;;5023527;28;20030;-61
2023/08/20 11:46:17;;;;;;;10.45;2.58;;;22.80;1.00;;;;;;5025484;28;20526;-60
2023/08/20 11:49:03;;;;;;;9.15;2.30;;;22.90;1.00;;;;;;5025763;28;20069;-61
2023/08/20 11:51:30;;;;;;;6.25;2.13;;;22.50;1.00;;;;;;5017453;28;20041;-61
2023/08/20 11:53:58;;;;;;;8.38;2.15;;;22.90;1.00;;;;;;5031181;28;20148;-60
2023/08/20 11:56:23;;;;;;;7.40;2.75;;;23.40;1.00;;;;;;5020396;28;20042;-61
2023/08/20 11:58:52;;;;;;;11.80;2.70;;;23.80;1.00;;;;;;5020463;28;20379;-62
2023/08/20 12:01:19;;;;;;;6.20;2.15;;;23.10;1.00;;;;;;5029426;28;20052;-61
2023/08/20 12:03:44;;;;;;;7.45;2.00;;;23.60;1.00;;;;;;5024221;28;20045;-61
2023/08/20 12:06:21;;;;;;;12.07;2.97;;;23.20;1.00;;;;;;5020792;28;20046;-61
2023/08/20 12:08:47;;;;;;;10.80;2.70;;;23.00;1.00;;;;;;5020565;28;20463;-61
2023/08/20 12:11:13;;;;;;;6.53;2.03;;;22.70;1.00;;;;;;5025938;28;20090;-62
2023/08/20 12:13:39;;;;;;;8.93;2.53;;;22.80;1.00;;;;;;5004444;28;20037;-61
2023/08/20 12:16:04;;;;;;;6.68;1.98;;;23.10;1.00;;;;;;5024923;28;20502;-62
2023/08/20 12:18:30;;;;;;;9.45;2.40;;;24.00;1.00;;;;;;5023614;28;20116;-61
2023/08/20 12:20:56;;;;;;;9.15;3.33;;;23.10;1.00;;;;;;5026841;28;20104;-62
2023/08/20 12:23:22;;;;;;;7.18;2.05;;;23.10;1.00;;;;;;5022117;28;20045;-61
2023/08/20 12:25:52;;;;;;;7.65;2.17;;;23.50;1.00;;;;;;5029997;28;20490;-62
2023/08/20 12:28:18;;;;;;;8.07;2.15;;;23.30;1.00;;;;;;5011123;28;20465;-61
2023/08/20 12:30:44;;;;;;;10.68;2.35;;;23.50;1.00;;;;;;5024865;28;20124;-62
2023/08/20 12:33:10;;;;;;;7.38;2.08;;;24.00;1.00;;;;;;5021319;28;20042;-61
2023/08/20 12:35:36;;;;;;;7.68;2.65;;;26.60;1.00;;;;;;5019361;28;20041;-62
2023/08/20 12:38:03;;;;;;;8.38;2.33;;;27.50;99.90;;;;;;5018691;28;20033;-62
2023/08/20 12:40:29;;;;;;;9.10;2.42;;;28.80;99.90;;;;;;5026754;28;20438;-61
2023/08/20 12:42:54;;;;;;;8.07;2.17;;;28.50;99.90;;;;;;5019949;28;20029;-61